Time;durP1;ratioP1;P1;durP2;ratioP2;P2;SDS_P1;SDS_P2;PMS_P1;PMS_P2;Temp;Humidity;BMP_temperature;BMP_pressure;BME280_temperature;BME280_humidity;BME280_pressure;Samples;Min_cycle;Max_cycle;Signal;HPM_P1;HPM_P2
2020/12/29 00:01:37;;;;;;;4.13;2.83;;;2.50;99.90;;;;;;5013809;28;20268;-78
2020/12/29 00:04:05;;;;;;;2.73;2.47;;;2.50;99.90;;;;;;5024795;28;20748;-79
2020/12/29 00:06:31;;;;;;;5.00;2.50;;;2.50;99.90;;;;;;5033190;28;20215;-78
2020/12/29 00:08:59;;;;;;;4.13;2.73;;;2.50;99.90;;;;;;5034072;28;20670;-78
2020/12/29 00:11:27;;;;;;;2.53;2.30;;;2.50;99.90;;;;;;5032071;28;20207;-78
2020/12/29 00:13:53;;;;;;;2.40;1.80;;;2.50;99.90;;;;;;5031629;28;20243;-78
2020/12/29 00:16:20;;;;;;;2.87;2.20;;;2.60;99.90;;;;;;5030927;28;20290;-78
2020/12/29 00:18:48;;;;;;;2.23;2.03;;;2.60;99.90;;;;;;5029012;28;20209;-78
2020/12/29 00:21:20;;;;;;;2.50;1.90;;;2.60;99.90;;;;;;5028639;28;20196;-77
2020/12/29 00:23:47;;;;;;;1.80;1.70;;;2.60;99.90;;;;;;5031080;28;20231;-77
2020/12/29 00:26:16;;;;;;;1.77;1.50;;;2.60;99.90;;;;;;5023522;28;20197;-77
2020/12/29 00:28:44;;;;;;;1.63;1.50;;;2.60;99.90;;;;;;5010706;28;20263;-77
2020/12/29 00:31:18;;;;;;;2.20;1.33;;;2.60;99.90;;;;;;5011777;28;20256;-77
2020/12/29 00:33:46;;;;;;;1.40;1.30;;;2.60;99.90;;;;;;5011186;28;20256;-78
2020/12/29 00:36:14;;;;;;;1.40;1.17;;;2.70;99.90;;;;;;5010484;28;20236;-77
2020/12/29 00:38:42;;;;;;;1.37;1.10;;;2.70;99.90;;;;;;5010561;28;20667;-77
2020/12/29 00:41:10;;;;;;;1.03;0.93;;;2.70;99.90;;;;;;5010377;28;20302;-78
2020/12/29 00:43:39;;;;;;;1.20;1.10;;;2.70;99.90;;;;;;5012810;28;20283;-77
2020/12/29 00:46:10;;;;;;;0.80;0.70;;;2.80;99.90;;;;;;5011548;28;20232;-78
2020/12/29 00:48:38;;;;;;;0.90;0.90;;;2.80;99.90;;;;;;5010476;28;20197;-77
2020/12/29 00:51:07;;;;;;;2.43;0.67;;;2.80;99.90;;;;;;5012628;28;20209;-78
2020/12/29 00:53:35;;;;;;;0.60;0.50;;;2.80;99.90;;;;;;5014491;28;20263;-78
2020/12/29 00:56:07;;;;;;;0.60;0.60;;;2.90;99.90;;;;;;5012852;28;20276;-78
2020/12/29 00:58:36;;;;;;;0.77;0.70;;;2.90;99.90;;;;;;5012701;28;20208;-78
2020/12/29 01:01:04;;;;;;;0.60;0.50;;;2.90;99.90;;;;;;5012756;28;20312;-79
2020/12/29 01:03:37;;;;;;;0.60;0.50;;;2.90;99.90;;;;;;5012443;28;20208;-78
2020/12/29 01:06:05;;;;;;;0.67;0.57;;;3.00;99.90;;;;;;5012446;28;20248;-79
2020/12/29 01:08:31;;;;;;;0.90;0.50;;;3.00;99.90;;;;;;5013613;28;20678;-78
2020/12/29 01:10:59;;;;;;;0.50;0.40;;;3.00;99.90;;;;;;5012246;28;20235;-78
2020/12/29 01:13:27;;;;;;;0.57;0.50;;;3.10;99.90;;;;;;5012248;28;20209;-78
2020/12/29 01:15:54;;;;;;;0.50;0.50;;;3.10;99.90;;;;;;5011891;28;20213;-78
2020/12/29 01:18:21;;;;;;;0.40;0.40;;;3.10;99.90;;;;;;5012878;28;20228;-78
2020/12/29 01:20:49;;;;;;;0.60;0.60;;;3.00;99.90;;;;;;5012353;28;20247;-78
2020/12/29 01:23:17;;;;;;;0.83;0.57;;;3.00;99.90;;;;;;5013592;28;20251;-78
2020/12/29 01:25:44;;;;;;;1.10;0.87;;;3.00;99.90;;;;;;5012087;28;20858;-79
2020/12/29 01:28:12;;;;;;;0.50;0.50;;;2.90;99.90;;;;;;5011702;28;20695;-78
2020/12/29 01:30:39;;;;;;;0.60;0.60;;;2.90;99.90;;;;;;5011757;28;20243;-79
2020/12/29 01:33:06;;;;;;;1.73;0.70;;;2.80;99.90;;;;;;5012374;28;20194;-79
2020/12/29 01:35:33;;;;;;;0.63;0.53;;;2.80;99.90;;;;;;5031943;28;20255;-78
2020/12/29 01:38:00;;;;;;;0.47;0.47;;;2.80;99.90;;;;;;5031176;28;20594;-78
2020/12/29 01:40:26;;;;;;;0.50;0.40;;;2.90;99.90;;;;;;5032661;28;20204;-78
2020/12/29 01:42:54;;;;;;;0.43;0.43;;;2.90;99.90;;;;;;5030813;28;20200;-78
2020/12/29 01:45:21;;;;;;;0.37;0.33;;;3.00;99.90;;;;;;5031085;28;20744;-78
2020/12/29 01:47:49;;;;;;;1.33;0.50;;;3.00;99.90;;;;;;5030734;28;20289;-78
2020/12/29 01:50:20;;;;;;;0.30;0.30;;;3.10;99.90;;;;;;5031325;28;20208;-78
2020/12/29 01:53:01;;;;;;;1.17;0.40;;;3.10;99.90;;;;;;5032862;28;20184;-78
2020/12/29 01:55:30;;;;;;;0.60;0.50;;;3.20;99.90;;;;;;5031290;28;20204;-78
2020/12/29 01:58:01;;;;;;;0.70;0.50;;;3.10;99.90;;;;;;5031886;28;20277;-77
2020/12/29 02:00:28;;;;;;;0.50;0.40;;;3.10;99.90;;;;;;5031536;28;20258;-78
2020/12/29 02:02:57;;;;;;;0.40;0.40;;;3.10;99.90;;;;;;5030092;28;20737;-78
2020/12/29 02:05:26;;;;;;;0.20;0.20;;;3.10;99.90;;;;;;5012468;28;20220;-78
2020/12/29 02:07:54;;;;;;;1.00;0.30;;;3.20;99.90;;;;;;5012949;28;20208;-78
2020/12/29 02:10:22;;;;;;;1.00;0.30;;;3.30;99.90;;;;;;5011825;28;20285;-78
2020/12/29 02:12:48;;;;;;;0.30;0.20;;;3.30;99.90;;;;;;5013238;28;20248;-78
2020/12/29 02:15:16;;;;;;;0.93;0.30;;;3.30;99.90;;;;;;5012226;28;20642;-78
2020/12/29 02:17:43;;;;;;;0.40;0.10;;;3.30;99.90;;;;;;5011617;28;20223;-78
2020/12/29 02:20:10;;;;;;;0.47;0.30;;;3.30;99.90;;;;;;5013445;28;20614;-77
2020/12/29 02:22:37;;;;;;;0.30;0.20;;;3.30;99.90;;;;;;5012904;28;20240;-78
2020/12/29 02:25:06;;;;;;;0.30;0.30;;;3.30;99.90;;;;;;5011854;28;20613;-78
2020/12/29 02:27:45;;;;;;;0.20;0.20;;;3.30;99.90;;;;;;5028624;28;20214;-78
2020/12/29 02:30:13;;;;;;;0.20;0.20;;;3.30;99.90;;;;;;5031366;28;20210;-78
2020/12/29 02:32:40;;;;;;;0.97;0.20;;;3.30;99.90;;;;;;5030652;28;20210;-78
2020/12/29 02:35:10;;;;;;;0.30;0.30;;;3.40;99.90;;;;;;5014895;28;20206;-78
2020/12/29 02:37:38;;;;;;;1.47;0.30;;;3.40;99.90;;;;;;5013178;28;20584;-78
2020/12/29 02:40:05;;;;;;;1.20;0.30;;;3.30;99.90;;;;;;5011453;28;20200;-78
2020/12/29 02:42:32;;;;;;;0.30;0.30;;;3.30;99.90;;;;;;5011683;28;20201;-78
2020/12/29 02:44:59;;;;;;;0.40;0.30;;;3.30;99.90;;;;;;5012957;28;20486;-78
2020/12/29 02:47:27;;;;;;;0.67;0.30;;;3.30;99.90;;;;;;5012178;28;20583;-78
2020/12/29 02:49:54;;;;;;;0.30;0.20;;;3.30;99.90;;;;;;5013515;28;20667;-78
2020/12/29 02:52:21;;;;;;;0.53;0.20;;;3.30;99.90;;;;;;5010875;28;20205;-78
2020/12/29 02:54:48;;;;;;;0.30;0.30;;;3.20;99.90;;;;;;5011512;28;20662;-78
2020/12/29 02:57:15;;;;;;;0.37;0.37;;;3.30;99.90;;;;;;5012432;28;20229;-78
2020/12/29 02:59:43;;;;;;;0.20;0.13;;;3.20;99.90;;;;;;5013130;28;20221;-78
2020/12/29 03:02:09;;;;;;;0.20;0.20;;;3.30;99.90;;;;;;5011095;28;20295;-78
2020/12/29 03:04:37;;;;;;;0.87;0.20;;;3.30;99.90;;;;;;5013019;28;20205;-78
2020/12/29 03:07:04;;;;;;;0.60;0.30;;;3.30;99.90;;;;;;5013887;28;20413;-78
2020/12/29 03:09:31;;;;;;;0.10;0.10;;;3.30;99.90;;;;;;5011960;28;20267;-78
2020/12/29 03:11:57;;;;;;;1.53;0.17;;;3.30;99.90;;;;;;5015051;28;20267;-78
2020/12/29 03:14:24;;;;;;;0.73;0.20;;;3.20;99.90;;;;;;5016402;28;20201;-78
2020/12/29 03:16:51;;;;;;;0.40;0.20;;;3.20;99.90;;;;;;5013287;28;20228;-78
2020/12/29 03:19:24;;;;;;;0.40;0.20;;;3.20;99.90;;;;;;5014203;28;20201;-78
2020/12/29 03:21:51;;;;;;;0.30;0.20;;;3.10;99.90;;;;;;5015075;28;20201;-77
2020/12/29 03:24:18;;;;;;;0.20;0.20;;;3.10;99.90;;;;;;5013350;28;20201;-79
2020/12/29 03:26:45;;;;;;;0.40;0.20;;;3.10;99.90;;;;;;5024534;28;20274;-77
2020/12/29 03:29:12;;;;;;;0.10;0.10;;;3.10;99.90;;;;;;5033710;28;20203;-78
2020/12/29 03:31:43;;;;;;;0.30;0.20;;;3.00;99.90;;;;;;5035375;28;20684;-78
2020/12/29 03:34:36;;;;;;;0.30;0.20;;;2.80;99.90;;;;;;5023486;28;20231;-77
2020/12/29 03:37:09;;;;;;;0.13;0.10;;;2.60;99.90;;;;;;5014897;28;20209;-78
2020/12/29 03:39:38;;;;;;;2.13;0.27;;;2.40;99.90;;;;;;5014070;28;20193;-77
2020/12/29 03:42:06;;;;;;;0.33;0.10;;;2.30;99.90;;;;;;5013100;28;20205;-78
2020/12/29 03:44:33;;;;;;;0.30;0.20;;;2.10;99.90;;;;;;5013094;28;20230;-77
2020/12/29 03:47:04;;;;;;;0.30;0.20;;;1.90;99.90;;;;;;5013183;28;20205;-78
2020/12/29 03:49:30;;;;;;;2.03;0.20;;;1.70;99.90;;;;;;5013290;28;20235;-77
2020/12/29 03:51:58;;;;;;;0.17;0.17;;;1.50;99.90;;;;;;5012799;28;20209;-78
2020/12/29 03:54:25;;;;;;;0.20;0.20;;;1.40;99.90;;;;;;5016351;28;20700;-79
2020/12/29 03:56:52;;;;;;;0.20;0.20;;;1.20;99.90;;;;;;5019898;28;20228;-77
2020/12/29 03:59:18;;;;;;;0.27;0.10;;;1.10;99.90;;;;;;5019817;28;20221;-79
2020/12/29 04:01:45;;;;;;;0.20;0.20;;;1.00;99.90;;;;;;5017681;28;20232;-78
2020/12/29 04:04:12;;;;;;;0.23;0.20;;;0.90;99.90;;;;;;5018396;28;20205;-79
2020/12/29 04:06:39;;;;;;;0.10;0.10;;;0.90;99.90;;;;;;5018898;28;20251;-79
2020/12/29 04:09:06;;;;;;;0.50;0.30;;;0.80;99.90;;;;;;5018901;28;20300;-79
2020/12/29 04:11:32;;;;;;;0.20;0.20;;;0.70;99.90;;;;;;5009965;28;20205;-78
2020/12/29 04:13:59;;;;;;;0.13;0.13;;;0.70;99.90;;;;;;5011133;28;20204;-78
2020/12/29 04:16:26;;;;;;;0.33;0.30;;;0.60;99.90;;;;;;5010164;28;20290;-78
2020/12/29 04:18:54;;;;;;;0.10;0.10;;;0.60;99.90;;;;;;5009246;28;20236;-78
2020/12/29 04:21:21;;;;;;;0.47;0.27;;;0.50;99.90;;;;;;5009285;28;20197;-78
2020/12/29 04:23:48;;;;;;;0.10;0.10;;;0.40;99.90;;;;;;5008774;28;20643;-79
2020/12/29 04:26:16;;;;;;;1.13;0.20;;;0.40;99.90;;;;;;5025932;28;20232;-78
2020/12/29 04:28:43;;;;;;;0.47;0.20;;;0.30;99.90;;;;;;5039764;28;20204;-79
2020/12/29 04:31:14;;;;;;;0.20;0.20;;;0.30;99.90;;;;;;5039133;28;20189;-80
2020/12/29 04:33:41;;;;;;;1.23;0.20;;;0.20;99.90;;;;;;5033519;28;20263;-79
2020/12/29 04:36:08;;;;;;;0.20;0.20;;;0.10;99.90;;;;;;5020648;28;20258;-79
2020/12/29 04:38:36;;;;;;;0.30;0.27;;;0.10;99.90;;;;;;5019775;28;20205;-79
2020/12/29 04:41:03;;;;;;;0.10;0.10;;;0.00;99.90;;;;;;5021226;28;20225;-79
2020/12/29 04:43:31;;;;;;;0.40;0.20;;;-0.10;99.90;;;;;;5024303;28;20219;-79
2020/12/29 04:46:03;;;;;;;1.40;0.40;;;-0.10;99.90;;;;;;5022469;28;20197;-79
2020/12/29 04:48:31;;;;;;;0.60;0.37;;;-0.10;99.90;;;;;;5016969;28;20263;-78
2020/12/29 04:51:04;;;;;;;0.10;0.10;;;-0.20;99.90;;;;;;5010565;28;20201;-78
2020/12/29 04:53:33;;;;;;;0.20;0.20;;;-0.20;99.90;;;;;;5010514;28;20216;-78
2020/12/29 04:56:08;;;;;;;0.50;0.30;;;-0.20;99.90;;;;;;5010516;28;20569;-78
2020/12/29 04:58:38;;;;;;;0.30;0.20;;;-0.30;99.90;;;;;;5011443;28;20297;-78
2020/12/29 05:01:07;;;;;;;0.37;0.33;;;-0.30;99.90;;;;;;5014101;28;20270;-78
2020/12/29 05:03:45;;;;;;;1.00;0.20;;;-0.30;99.90;;;;;;5016403;28;20286;-79
2020/12/29 05:06:13;;;;;;;0.97;0.30;;;-0.40;99.90;;;;;;5017517;28;20212;-78
2020/12/29 05:08:46;;;;;;;0.20;0.20;;;-0.40;99.90;;;;;;5018706;28;20201;-79
2020/12/29 05:11:16;;;;;;;0.20;0.20;;;-0.40;99.90;;;;;;5016382;28;20281;-79
2020/12/29 05:13:44;;;;;;;2.93;0.20;;;-0.50;99.90;;;;;;5017852;28;20248;-79
2020/12/29 05:16:11;;;;;;;0.20;0.20;;;-0.50;99.90;;;;;;5017466;28;20680;-79
2020/12/29 05:18:38;;;;;;;0.70;0.33;;;-0.60;99.90;;;;;;5017578;28;20259;-78
2020/12/29 05:21:06;;;;;;;0.20;0.20;;;-0.60;99.90;;;;;;5017159;28;20213;-79
2020/12/29 05:23:35;;;;;;;1.23;0.20;;;-0.60;99.90;;;;;;5016436;28;20196;-78
2020/12/29 05:26:02;;;;;;;0.63;0.30;;;-0.70;99.90;;;;;;5017514;28;20328;-78
2020/12/29 05:28:30;;;;;;;0.10;0.10;;;-0.70;99.90;;;;;;5017862;28;20666;-79
2020/12/29 05:30:59;;;;;;;0.63;0.20;;;-0.80;99.90;;;;;;5018100;28;20201;-79
2020/12/29 05:33:28;;;;;;;0.80;0.30;;;-0.80;99.90;;;;;;5017619;28;20232;-79
2020/12/29 05:35:58;;;;;;;0.10;0.10;;;-0.80;99.90;;;;;;5019037;28;20205;-78
2020/12/29 05:38:25;;;;;;;0.17;0.17;;;-0.80;99.90;;;;;;5018743;28;20236;-79
2020/12/29 05:40:52;;;;;;;0.50;0.20;;;-0.90;99.90;;;;;;5018801;28;21041;-78
2020/12/29 05:43:31;;;;;;;0.57;0.20;;;-0.90;99.90;;;;;;5018307;28;20204;-78
2020/12/29 05:46:06;;;;;;;0.40;0.20;;;-0.90;99.90;;;;;;5020834;28;20670;-79
2020/12/29 05:48:34;;;;;;;0.80;0.27;;;-1.00;99.90;;;;;;5019109;28;20667;-78
2020/12/29 05:51:12;;;;;;;0.73;0.30;;;-1.00;99.90;;;;;;5019633;28;20201;-79
2020/12/29 05:53:39;;;;;;;1.63;0.40;;;-1.00;99.90;;;;;;5020350;28;20199;-79
2020/12/29 05:56:08;;;;;;;1.30;0.20;;;-1.00;99.90;;;;;;5020297;28;20200;-79
2020/12/29 05:58:35;;;;;;;0.20;0.20;;;-1.00;99.90;;;;;;5019096;28;20229;-79
2020/12/29 06:01:03;;;;;;;0.20;0.20;;;-1.00;99.90;;;;;;5020705;28;20205;-78
2020/12/29 06:03:30;;;;;;;0.40;0.10;;;-0.90;99.90;;;;;;5019257;28;20229;-79
2020/12/29 06:06:06;;;;;;;0.40;0.10;;;-1.00;99.90;;;;;;5021120;28;20259;-79
2020/12/29 06:08:37;;;;;;;0.20;0.20;;;-1.00;99.90;;;;;;5019858;28;20228;-78
2020/12/29 06:11:12;;;;;;;0.33;0.30;;;-1.00;99.90;;;;;;5020521;28;20204;-79
2020/12/29 06:13:46;;;;;;;0.20;0.20;;;-1.00;99.90;;;;;;5019673;28;20224;-79
2020/12/29 06:16:16;;;;;;;0.10;0.10;;;-1.10;99.90;;;;;;5021736;28;20251;-78
2020/12/29 06:18:46;;;;;;;0.17;0.17;;;-1.10;99.90;;;;;;5021745;28;20497;-79
2020/12/29 06:21:18;;;;;;;0.13;0.10;;;-1.10;99.90;;;;;;5016423;28;20215;-78
2020/12/29 06:23:48;;;;;;;2.53;0.20;;;-1.10;99.90;;;;;;5014641;28;20263;-79
2020/12/29 06:26:20;;;;;;;0.60;0.20;;;-1.10;99.90;;;;;;5013989;28;20201;-77
2020/12/29 06:28:49;;;;;;;0.53;0.20;;;-1.10;99.90;;;;;;5014706;28;20201;-79
2020/12/29 06:31:30;;;;;;;0.20;0.20;;;-1.10;99.90;;;;;;5015006;28;20200;-79
2020/12/29 06:33:57;;;;;;;0.20;0.20;;;-1.10;99.90;;;;;;5014775;28;20219;-79
2020/12/29 06:36:28;;;;;;;0.30;0.30;;;-1.10;99.90;;;;;;5014480;28;20249;-78
2020/12/29 06:39:03;;;;;;;0.33;0.30;;;-1.10;99.90;;;;;;5014613;28;20201;-78
2020/12/29 06:41:34;;;;;;;0.43;0.40;;;-1.20;99.90;;;;;;5015142;28;20211;-78
2020/12/29 06:44:04;;;;;;;0.50;0.33;;;-1.20;99.90;;;;;;5016001;28;20677;-78
2020/12/29 06:46:32;;;;;;;0.53;0.40;;;-1.20;99.90;;;;;;5019231;28;20193;-78
2020/12/29 06:49:22;;;;;;;0.40;0.40;;;-1.30;99.90;;;;;;5019828;28;20217;-79
2020/12/29 06:52:27;;;;;;;1.03;0.40;;;-1.30;99.90;;;;;;5019342;28;20213;-78
2020/12/29 06:54:59;;;;;;;0.83;0.70;;;-1.30;99.90;;;;;;5018647;28;20801;-78
2020/12/29 06:57:35;;;;;;;7.20;0.70;;;-1.30;99.90;;;;;;5019618;28;20643;-78
2020/12/29 07:00:24;;;;;;;0.60;0.53;;;-1.30;99.90;;;;;;5019929;28;20221;-78
2020/12/29 07:02:53;;;;;;;0.60;0.50;;;-1.30;99.90;;;;;;5019630;28;20232;-78
2020/12/29 07:05:25;;;;;;;0.50;0.50;;;-1.30;99.90;;;;;;5019604;28;20205;-78
2020/12/29 07:08:02;;;;;;;0.90;0.50;;;-1.30;99.90;;;;;;5018983;28;20223;-78
2020/12/29 07:10:36;;;;;;;1.60;0.50;;;-1.30;99.90;;;;;;5020116;28;20228;-79
2020/12/29 07:13:16;;;;;;;2.40;0.50;;;-1.20;99.90;;;;;;5019436;28;20303;-79
2020/12/29 07:15:55;;;;;;;0.70;0.60;;;-1.20;99.90;;;;;;5020103;28;20587;-79
2020/12/29 07:18:25;;;;;;;1.10;0.70;;;-1.20;99.90;;;;;;5020348;28;20694;-79
2020/12/29 07:20:57;;;;;;;0.73;0.73;;;-1.20;99.90;;;;;;5020144;28;20681;-78
2020/12/29 07:23:29;;;;;;;0.83;0.70;;;-1.20;99.90;;;;;;5020220;28;20190;-78
2020/12/29 07:25:59;;;;;;;1.50;0.90;;;-1.10;99.90;;;;;;5023812;28;20612;-79
2020/12/29 07:28:29;;;;;;;0.97;0.70;;;-1.10;99.90;;;;;;5041231;28;20208;-79
2020/12/29 07:30:56;;;;;;;1.20;0.70;;;-1.00;99.90;;;;;;5040248;28;20502;-79
2020/12/29 07:33:25;;;;;;;0.70;0.63;;;-1.00;99.90;;;;;;5036354;28;20714;-79
2020/12/29 07:35:52;;;;;;;0.80;0.60;;;-1.00;99.90;;;;;;5020929;28;20201;-79
2020/12/29 07:38:25;;;;;;;0.73;0.73;;;-1.00;99.90;;;;;;5021020;28;20229;-78
2020/12/29 07:40:53;;;;;;;0.70;0.60;;;-1.00;99.90;;;;;;5021870;28;20181;-79
2020/12/29 07:43:20;;;;;;;1.13;0.70;;;-1.00;99.90;;;;;;5020355;28;20208;-79
2020/12/29 07:45:47;;;;;;;0.77;0.77;;;-1.00;99.90;;;;;;5022529;28;20260;-79
2020/12/29 07:48:14;;;;;;;0.60;0.60;;;-0.90;99.90;;;;;;5025529;28;20645;-78
2020/12/29 07:50:41;;;;;;;0.63;0.60;;;-0.90;99.90;;;;;;5022910;28;20614;-79
2020/12/29 07:53:10;;;;;;;1.03;0.80;;;-0.90;99.90;;;;;;5020720;28;20209;-78
2020/12/29 07:55:42;;;;;;;1.23;0.83;;;-0.90;99.90;;;;;;5011165;28;20208;-78
2020/12/29 07:58:10;;;;;;;0.87;0.70;;;-0.80;99.90;;;;;;5011001;28;20600;-78
2020/12/29 08:00:38;;;;;;;1.00;0.80;;;-0.80;99.90;;;;;;5011318;28;20299;-78
2020/12/29 08:03:06;;;;;;;1.70;0.63;;;-0.80;99.90;;;;;;5012240;28;20279;-78
2020/12/29 08:05:34;;;;;;;1.07;0.80;;;-0.80;99.90;;;;;;5031369;28;20203;-78
2020/12/29 08:08:03;;;;;;;0.90;0.60;;;-0.70;99.90;;;;;;5031622;28;20254;-78
2020/12/29 08:10:32;;;;;;;1.03;0.73;;;-0.70;99.90;;;;;;5031197;28;20204;-78
2020/12/29 08:13:00;;;;;;;1.47;0.80;;;-0.70;99.90;;;;;;5030671;28;20756;-78
2020/12/29 08:15:38;;;;;;;0.90;0.80;;;-0.60;99.90;;;;;;5031574;28;20228;-78
2020/12/29 08:18:07;;;;;;;1.43;0.70;;;-0.60;99.90;;;;;;5030508;28;20242;-78
2020/12/29 08:20:44;;;;;;;1.13;0.70;;;-0.60;99.90;;;;;;5030757;28;20208;-78
2020/12/29 08:23:13;;;;;;;0.70;0.63;;;-0.60;99.90;;;;;;5032580;28;20244;-78
2020/12/29 08:25:40;;;;;;;0.83;0.70;;;-0.50;99.90;;;;;;5032724;28;20230;-78
2020/12/29 08:28:07;;;;;;;0.80;0.60;;;-0.50;99.90;;;;;;5019511;28;20236;-79
2020/12/29 08:30:35;;;;;;;1.30;0.80;;;-0.40;99.90;;;;;;5018816;28;20248;-78
2020/12/29 08:33:06;;;;;;;0.70;0.70;;;-0.40;99.90;;;;;;5019212;28;20287;-78
2020/12/29 08:35:42;;;;;;;1.30;0.77;;;-0.40;99.90;;;;;;5018469;28;20606;-79
2020/12/29 08:38:19;;;;;;;1.00;0.70;;;-0.30;99.90;;;;;;5019068;28;20205;-78
2020/12/29 08:41:12;;;;;;;1.00;0.80;;;-0.30;99.90;;;;;;5019845;28;20181;-79
2020/12/29 08:43:48;;;;;;;1.40;1.10;;;-0.20;99.90;;;;;;5019638;28;20635;-79
2020/12/29 08:46:19;;;;;;;0.60;0.60;;;-0.20;99.90;;;;;;5021058;28;20231;-78
2020/12/29 08:48:56;;;;;;;1.10;0.97;;;-0.10;99.90;;;;;;5020810;28;20263;-78
2020/12/29 08:51:47;;;;;;;0.80;0.77;;;-0.10;99.90;;;;;;5019742;28;20193;-79
2020/12/29 08:54:16;;;;;;;1.20;0.90;;;0.00;99.90;;;;;;5021212;28;20223;-79
2020/12/29 08:56:44;;;;;;;2.40;1.10;;;0.10;99.90;;;;;;5019414;28;20286;-80
2020/12/29 08:59:16;;;;;;;1.20;1.00;;;0.20;99.90;;;;;;5019385;28;20248;-80
2020/12/29 09:01:44;;;;;;;1.03;0.93;;;0.20;99.90;;;;;;5021370;28;20243;-80
2020/12/29 09:04:31;;;;;;;0.90;0.80;;;0.30;99.90;;;;;;5020716;28;20604;-79
2020/12/29 09:07:18;;;;;;;0.83;0.83;;;0.40;99.90;;;;;;5021466;28;20267;-79
2020/12/29 09:09:52;;;;;;;1.37;1.00;;;0.50;99.90;;;;;;5019841;28;20185;-79
2020/12/29 09:12:19;;;;;;;0.97;0.70;;;0.70;99.90;;;;;;5019630;28;20593;-78
2020/12/29 09:14:51;;;;;;;1.67;0.90;;;0.70;99.90;;;;;;5021623;28;20217;-79
2020/12/29 09:17:18;;;;;;;1.53;0.80;;;0.80;99.90;;;;;;5020399;28;20282;-80
2020/12/29 09:20:19;;;;;;;0.70;0.70;;;0.90;99.90;;;;;;5020800;28;20488;-79
2020/12/29 09:23:01;;;;;;;0.70;0.63;;;1.10;99.90;;;;;;5021366;28;20225;-80
2020/12/29 09:25:42;;;;;;;1.10;0.50;;;1.20;99.90;;;;;;5021786;28;20185;-79
2020/12/29 09:28:25;;;;;;;0.50;0.50;;;1.30;99.90;;;;;;5014698;28;20189;-79
2020/12/29 09:31:00;;;;;;;0.70;0.60;;;1.50;99.90;;;;;;5016457;28;20189;-79
2020/12/29 09:33:29;;;;;;;0.60;0.50;;;1.60;99.90;;;;;;5018827;28;20266;-79
2020/12/29 09:36:02;;;;;;;0.40;0.40;;;1.70;99.90;;;;;;5035257;28;20208;-79
2020/12/29 09:38:31;;;;;;;0.43;0.30;;;1.90;99.90;;;;;;5035313;28;20204;-80
2020/12/29 09:41:00;;;;;;;0.90;0.50;;;2.00;99.90;;;;;;5036557;28;20204;-79
2020/12/29 09:43:27;;;;;;;0.67;0.53;;;2.20;99.90;;;;;;5036280;28;20200;-80
2020/12/29 09:45:57;;;;;;;0.50;0.40;;;2.30;99.90;;;;;;5035701;28;20803;-80
2020/12/29 09:48:24;;;;;;;0.30;0.30;;;2.40;99.90;;;;;;5035350;28;20208;-79
2020/12/29 09:50:52;;;;;;;1.73;0.50;;;2.50;99.90;;;;;;5034892;28;20732;-80
2020/12/29 09:53:19;;;;;;;0.70;0.43;;;2.60;99.90;;;;;;5036768;28;20667;-80
2020/12/29 09:55:46;;;;;;;0.57;0.47;;;2.60;99.90;;;;;;5036486;28;20203;-80
2020/12/29 09:58:13;;;;;;;1.03;0.60;;;2.70;99.90;;;;;;5034878;28;20255;-79
2020/12/29 10:00:39;;;;;;;0.30;0.30;;;2.90;99.90;;;;;;5036918;28;20652;-79
2020/12/29 10:03:06;;;;;;;0.40;0.40;;;3.10;99.90;;;;;;5033000;28;20290;-79
2020/12/29 10:05:33;;;;;;;0.47;0.47;;;3.40;99.90;;;;;;5015860;28;20204;-80
2020/12/29 10:08:00;;;;;;;0.47;0.30;;;3.60;99.90;;;;;;5016564;28;20255;-80
2020/12/29 10:10:27;;;;;;;1.23;0.37;;;3.90;99.90;;;;;;5016427;28;20197;-79
2020/12/29 10:12:56;;;;;;;0.57;0.43;;;3.90;99.90;;;;;;5017873;28;20236;-80
2020/12/29 10:15:23;;;;;;;0.40;0.40;;;4.00;99.90;;;;;;5017213;28;20216;-79
2020/12/29 10:17:50;;;;;;;0.73;0.40;;;4.10;99.90;;;;;;5016663;28;20682;-80
2020/12/29 10:20:17;;;;;;;0.30;0.30;;;4.20;99.90;;;;;;5017144;28;20205;-79
2020/12/29 10:22:45;;;;;;;0.33;0.30;;;4.40;99.90;;;;;;5021489;28;20259;-80
2020/12/29 10:25:14;;;;;;;0.40;0.20;;;4.50;99.90;;;;;;5021585;28;20204;-80
2020/12/29 10:27:45;;;;;;;0.33;0.33;;;4.70;99.90;;;;;;5040341;28;20224;-79
2020/12/29 10:30:12;;;;;;;0.93;0.50;;;4.90;99.90;;;;;;5043745;28;20203;-80
2020/12/29 10:32:39;;;;;;;0.40;0.30;;;4.90;99.90;;;;;;5041770;28;20279;-80
2020/12/29 10:35:06;;;;;;;0.50;0.40;;;5.10;99.90;;;;;;5024615;28;20217;-80
2020/12/29 10:37:34;;;;;;;0.30;0.30;;;5.20;99.90;;;;;;5022935;28;20226;-80
2020/12/29 10:40:01;;;;;;;0.30;0.30;;;5.20;99.90;;;;;;5022662;28;20198;-80
2020/12/29 10:42:28;;;;;;;0.60;0.50;;;5.30;99.90;;;;;;5022452;28;20205;-80
2020/12/29 10:44:55;;;;;;;0.73;0.43;;;5.20;99.90;;;;;;5022998;28;20466;-79
2020/12/29 10:47:22;;;;;;;0.37;0.30;;;5.00;99.90;;;;;;5024482;28;20308;-81
2020/12/29 10:49:50;;;;;;;0.60;0.60;;;4.80;99.90;;;;;;5024013;28;20205;-80
2020/12/29 10:52:17;;;;;;;0.67;0.40;;;4.60;99.90;;;;;;5025915;28;20197;-81
2020/12/29 10:54:44;;;;;;;1.30;0.30;;;4.50;99.90;;;;;;5024728;28;20213;-81
2020/12/29 10:57:11;;;;;;;0.47;0.43;;;4.50;99.90;;;;;;5024686;28;20224;-80
2020/12/29 10:59:38;;;;;;;1.97;1.50;;;4.50;99.90;;;;;;5018619;28;20248;-79
2020/12/29 11:02:05;;;;;;;1.27;0.93;;;4.60;99.90;;;;;;5017654;28;20789;-79
2020/12/29 11:04:33;;;;;;;0.70;0.53;;;4.90;99.90;;;;;;5019021;28;20212;-80
2020/12/29 11:07:00;;;;;;;0.77;0.60;;;5.00;99.90;;;;;;5019022;28;20201;-80
2020/12/29 11:09:28;;;;;;;3.97;1.50;;;5.10;99.90;;;;;;5020246;28;20201;-80
2020/12/29 11:11:55;;;;;;;2.73;1.83;;;5.20;99.90;;;;;;5018403;28;20600;-79
2020/12/29 11:14:23;;;;;;;2.57;1.90;;;5.20;99.90;;;;;;5018434;28;20437;-80
2020/12/29 11:16:50;;;;;;;3.47;2.30;;;5.10;99.90;;;;;;5021270;28;20208;-80
2020/12/29 11:19:17;;;;;;;3.93;2.43;;;5.10;99.90;;;;;;5021054;28;20214;-79
2020/12/29 11:21:48;;;;;;;4.97;2.50;;;5.10;99.90;;;;;;5019515;28;20742;-79
2020/12/29 11:24:16;;;;;;;4.20;2.67;;;5.10;99.90;;;;;;5021015;28;20707;-79
2020/12/29 11:26:44;;;;;;;2.87;2.23;;;5.10;99.90;;;;;;5021219;28;20245;-81
2020/12/29 11:29:11;;;;;;;3.43;2.57;;;5.00;99.90;;;;;;5018500;28;20205;-80
2020/12/29 11:31:37;;;;;;;4.20;2.80;;;4.90;99.90;;;;;;5014110;28;20352;-79
2020/12/29 11:34:04;;;;;;;3.30;2.23;;;4.90;99.90;;;;;;5012807;28;20206;-79
2020/12/29 11:36:31;;;;;;;3.87;2.97;;;4.80;99.90;;;;;;5012674;28;20297;-79
2020/12/29 11:38:58;;;;;;;2.77;2.23;;;4.80;99.90;;;;;;5012077;28;20272;-79
2020/12/29 11:41:25;;;;;;;3.20;2.40;;;4.80;99.90;;;;;;5012531;28;20203;-79
2020/12/29 11:43:52;;;;;;;3.53;2.23;;;4.80;99.90;;;;;;5012228;28;20203;-78
2020/12/29 11:46:19;;;;;;;3.57;2.33;;;4.80;99.90;;;;;;5012361;28;20576;-78
2020/12/29 11:48:47;;;;;;;2.70;1.90;;;4.80;99.90;;;;;;5011695;28;20722;-79
2020/12/29 11:51:14;;;;;;;2.70;2.10;;;4.80;99.90;;;;;;5011488;28;20257;-79
2020/12/29 11:53:40;;;;;;;3.03;1.90;;;4.70;99.90;;;;;;5014630;28;20202;-79
2020/12/29 11:56:11;;;;;;;3.37;2.00;;;4.70;99.90;;;;;;5019699;28;20237;-80
2020/12/29 11:58:39;;;;;;;3.23;2.10;;;4.70;99.90;;;;;;5020840;28;20222;-81
2020/12/29 12:01:05;;;;;;;2.40;1.67;;;4.80;99.90;;;;;;5022331;28;20671;-80
2020/12/29 12:03:32;;;;;;;2.70;1.80;;;4.80;99.90;;;;;;5021028;28;20710;-79
2020/12/29 12:06:00;;;;;;;2.80;1.70;;;5.00;99.90;;;;;;5021990;28;20204;-81
2020/12/29 12:08:28;;;;;;;2.07;1.40;;;5.10;99.90;;;;;;5022494;28;20212;-80
2020/12/29 12:10:58;;;;;;;3.03;1.87;;;5.20;99.90;;;;;;5021521;28;20216;-80
2020/12/29 12:13:25;;;;;;;3.80;1.50;;;5.30;99.90;;;;;;5022264;28;20201;-80
2020/12/29 12:15:55;;;;;;;2.50;1.53;;;5.40;99.90;;;;;;5022987;28;20268;-81
2020/12/29 12:18:39;;;;;;;2.60;1.17;;;5.60;99.90;;;;;;5022370;28;20229;-80
2020/12/29 12:21:06;;;;;;;2.30;1.50;;;5.80;99.90;;;;;;5022795;28;20351;-81
2020/12/29 12:23:34;;;;;;;3.93;1.60;;;5.90;99.90;;;;;;5024003;28;20208;-80
2020/12/29 12:26:01;;;;;;;1.77;1.47;;;6.10;99.90;;;;;;5026849;28;20225;-79
2020/12/29 12:28:30;;;;;;;3.57;1.33;;;6.40;99.90;;;;;;5043461;28;20262;-80
2020/12/29 12:30:57;;;;;;;3.73;2.13;;;6.70;99.90;;;;;;5037517;28;20453;-79
2020/12/29 12:33:24;;;;;;;1.43;1.27;;;7.00;99.90;;;;;;5029331;28;20209;-79
2020/12/29 12:35:51;;;;;;;2.43;2.23;;;7.20;99.90;;;;;;5015155;28;20560;-80
2020/12/29 12:38:18;;;;;;;3.83;2.43;;;7.40;99.90;;;;;;5015240;28;20230;-80
2020/12/29 12:40:46;;;;;;;3.60;2.30;;;7.70;99.90;;;;;;5015780;28;20251;-80
2020/12/29 12:43:12;;;;;;;5.30;2.20;;;8.00;99.90;;;;;;5018242;28;20207;-79
2020/12/29 12:45:39;;;;;;;3.47;2.57;;;8.30;99.90;;;;;;5016432;28;20607;-80
2020/12/29 12:48:06;;;;;;;1.90;1.60;;;8.70;99.90;;;;;;5016575;28;20216;-80
2020/12/29 12:50:33;;;;;;;2.50;1.70;;;8.90;99.90;;;;;;5017272;28;20205;-79
2020/12/29 12:53:00;;;;;;;3.13;2.07;;;9.30;99.90;;;;;;4998991;28;20272;-79
2020/12/29 12:55:27;;;;;;;2.60;1.93;;;9.50;99.90;;;;;;4998688;28;20233;-79
2020/12/29 12:57:54;;;;;;;2.47;1.77;;;9.70;99.90;;;;;;4997311;28;20230;-80
2020/12/29 13:00:21;;;;;;;3.10;1.80;;;9.60;99.90;;;;;;4997127;28;20213;-79
2020/12/29 13:02:49;;;;;;;2.13;1.67;;;9.40;99.90;;;;;;4997731;28;20240;-79
2020/12/29 13:05:19;;;;;;;2.70;1.50;;;8.90;99.90;;;;;;5016167;28;20267;-80